sensor_id;sensor_type;location;lat;lon;timestamp;noise_LAeq;noise_LA_min;noise_LA_max;noise_LA01;noise_LA95
66335;Laerm;53138;51.496;6.410;2023-04-24T00:00:06;38.47;36.30;51.24;;
66335;Laerm;53138;51.496;6.410;2023-04-24T00:00:18;41.90;36.84;61.61;;
66335;Laerm;53138;51.496;6.410;2023-04-24T00:00:28;40.47;35.55;55.51;;
66335;Laerm;53138;51.496;6.410;2023-04-24T00:00:40;37.38;35.01;45.61;;
66335;Laerm;53138;51.496;6.410;2023-04-24T00:00:50;36.38;34.08;46.90;;
66335;Laerm;53138;51.496;6.410;2023-04-24T00:01:00;37.04;34.72;47.75;;
66335;Laerm;53138;51.496;6.410;2023-04-24T00:01:11;35.90;33.14;42.38;;
66335;Laerm;53138;51.496;6.410;2023-04-24T00:01:22;37.88;33.41;54.80;;
66335;Laerm;53138;51.496;6.410;2023-04-24T00:01:33;37.07;33.78;45.03;;
66335;Laerm;53138;51.496;6.410;2023-04-24T00:01:44;36.39;34.00;44.29;;
66335;Laerm;53138;51.496;6.410;2023-04-24T00:01:54;38.11;33.69;51.47;;
66335;Laerm;53138;51.496;6.410;2023-04-24T00:02:05;43.21;35.12;58.39;;
66335;Laerm;53138;51.496;6.410;2023-04-24T00:02:16;40.01;35.60;51.67;;
66335;Laerm;53138;51.496;6.410;2023-04-24T00:02:26;44.37;35.53;62.47;;
66335;Laerm;53138;51.496;6.410;2023-04-24T00:02:37;38.66;35.34;51.15;;
66335;Laerm;53138;51.496;6.410;2023-04-24T00:02:50;39.46;34.66;54.08;;
66335;Laerm;53138;51.496;6.410;2023-04-24T00:03:00;38.58;35.76;45.87;;
66335;Laerm;53138;51.496;6.410;2023-04-24T00:03:10;42.79;38.06;55.59;;
66335;Laerm;53138;51.496;6.410;2023-04-24T00:03:21;38.87;36.19;44.82;;
66335;Laerm;53138;51.496;6.410;2023-04-24T00:03:32;37.58;35.23;43.93;;
66335;Laerm;53138;51.496;6.410;2023-04-24T00:03:42;42.74;35.84;59.80;;
66335;Laerm;53138;51.496;6.410;2023-04-24T00:03:53;35.75;33.33;41.56;;
66335;Laerm;53138;51.496;6.410;2023-04-24T00:04:03;34.49;32.75;37.61;;
66335;Laerm;53138;51.496;6.410;2023-04-24T00:04:13;38.11;32.57;59.34;;
66335;Laerm;53138;51.496;6.410;2023-04-24T00:04:26;35.49;32.36;44.80;;
66335;Laerm;53138;51.496;6.410;2023-04-24T00:04:37;41.13;35.09;51.09;;
66335;Laerm;53138;51.496;6.410;2023-04-24T00:04:50;42.88;37.07;56.67;;
66335;Laerm;53138;51.496;6.410;2023-04-24T00:05:00;41.44;36.20;54.55;;
66335;Laerm;53138;51.496;6.410;2023-04-24T00:05:13;42.61;37.57;52.12;;
66335;Laerm;53138;51.496;6.410;2023-04-24T00:05:23;44.73;39.22;60.17;;
66335;Laerm;53138;51.496;6.410;2023-04-24T00:05:34;46.75;40.47;61.15;;
66335;Laerm;53138;51.496;6.410;2023-04-24T00:05:44;47.30;38.47;68.15;;
66335;Laerm;53138;51.496;6.410;2023-04-24T00:05:55;43.29;38.72;53.21;;
66335;Laerm;53138;51.496;6.410;2023-04-24T00:06:05;48.71;40.63;64.62;;
66335;Laerm;53138;51.496;6.410;2023-04-24T00:06:18;46.20;41.20;61.62;;
66335;Laerm;53138;51.496;6.410;2023-04-24T00:06:28;48.03;40.10;62.54;;
66335;Laerm;53138;51.496;6.410;2023-04-24T00:06:43;43.91;39.22;55.55;;
66335;Laerm;53138;51.496;6.410;2023-04-24T00:06:54;51.59;43.67;69.22;;
66335;Laerm;53138;51.496;6.410;2023-04-24T00:07:07;51.79;44.69;61.28;;
66335;Laerm;53138;51.496;6.410;2023-04-24T00:07:17;49.14;44.42;61.76;;
66335;Laerm;53138;51.496;6.410;2023-04-24T00:07:27;48.86;43.66;59.71;;
66335;Laerm;53138;51.496;6.410;2023-04-24T00:07:37;49.20;44.18;64.87;;
66335;Laerm;53138;51.496;6.410;2023-04-24T00:07:48;48.15;44.92;62.70;;
66335;Laerm;53138;51.496;6.410;2023-04-24T00:07:58;47.19;44.30;54.18;;
66335;Laerm;53138;51.496;6.410;2023-04-24T00:08:08;50.32;44.27;67.28;;
66335;Laerm;53138;51.496;6.410;2023-04-24T00:08:18;44.66;41.60;53.34;;
66335;Laerm;53138;51.496;6.410;2023-04-24T00:08:28;47.19;40.20;65.00;;
66335;Laerm;53138;51.496;6.410;2023-04-24T00:08:39;45.55;39.71;65.60;;
66335;Laerm;53138;51.496;6.410;2023-04-24T00:08:49;44.45;39.72;63.86;;
66335;Laerm;53138;51.496;6.410;2023-04-24T00:09:00;45.67;40.39;60.88;;
66335;Laerm;53138;51.496;6.410;2023-04-24T00:09:10;43.83;39.84;55.27;;
66335;Laerm;53138;51.496;6.410;2023-04-24T00:09:20;42.66;39.28;56.88;;
66335;Laerm;53138;51.496;6.410;2023-04-24T00:09:31;45.11;39.35;57.94;;
66335;Laerm;53138;51.496;6.410;2023-04-24T00:09:41;41.92;39.79;49.54;;
66335;Laerm;53138;51.496;6.410;2023-04-24T00:09:51;43.47;40.19;55.81;;
66335;Laerm;53138;51.496;6.410;2023-04-24T00:10:01;43.90;39.62;59.52;;
66335;Laerm;53138;51.496;6.410;2023-04-24T00:10:12;44.27;38.34;60.97;;
66335;Laerm;53138;51.496;6.410;2023-04-24T00:10:22;42.53;38.40;54.89;;
66335;Laerm;53138;51.496;6.410;2023-04-24T00:10:32;41.63;37.94;49.40;;
66335;Laerm;53138;51.496;6.410;2023-04-24T00:10:42;40.88;36.87;55.99;;
66335;Laerm;53138;51.496;6.410;2023-04-24T00:10:52;40.30;37.21;52.99;;
66335;Laerm;53138;51.496;6.410;2023-04-24T00:11:03;41.70;36.85;61.02;;
66335;Laerm;53138;51.496;6.410;2023-04-24T00:11:13;39.52;36.42;50.33;;
66335;Laerm;53138;51.496;6.410;2023-04-24T00:11:23;39.79;36.21;54.63;;
66335;Laerm;53138;51.496;6.410;2023-04-24T00:11:33;40.72;36.96;55.31;;
66335;Laerm;53138;51.496;6.410;2023-04-24T00:11:44;41.56;36.06;59.67;;
66335;Laerm;53138;51.496;6.410;2023-04-24T00:11:54;37.78;36.16;40.08;;
66335;Laerm;53138;51.496;6.410;2023-04-24T00:12:04;38.11;35.11;51.50;;
66335;Laerm;53138;51.496;6.410;2023-04-24T00:12:15;38.86;35.72;51.89;;
66335;Laerm;53138;51.496;6.410;2023-04-24T00:12:25;37.69;35.99;46.49;;
66335;Laerm;53138;51.496;6.410;2023-04-24T00:12:35;39.69;34.88;56.42;;
66335;Laerm;53138;51.496;6.410;2023-04-24T00:12:45;37.46;34.66;48.12;;
66335;Laerm;53138;51.496;6.410;2023-04-24T00:12:56;37.69;34.47;51.73;;
66335;Laerm;53138;51.496;6.410;2023-04-24T00:13:06;36.89;34.54;46.09;;
66335;Laerm;53138;51.496;6.410;2023-04-24T00:13:16;38.44;34.77;54.56;;
66335;Laerm;53138;51.496;6.410;2023-04-24T00:13:27;38.39;36.06;49.53;;
66335;Laerm;53138;51.496;6.410;2023-04-24T00:13:38;41.35;36.49;58.11;;
66335;Laerm;53138;51.496;6.410;2023-04-24T00:13:48;41.55;37.48;55.27;;
66335;Laerm;53138;51.496;6.410;2023-04-24T00:13:58;39.84;36.66;48.95;;
66335;Laerm;53138;51.496;6.410;2023-04-24T00:14:09;40.15;35.56;56.97;;
66335;Laerm;53138;51.496;6.410;2023-04-24T00:14:19;37.48;35.74;42.46;;
66335;Laerm;53138;51.496;6.410;2023-04-24T00:14:29;40.26;34.63;57.25;;
66335;Laerm;53138;51.496;6.410;2023-04-24T00:14:40;39.24;34.69;52.57;;
66335;Laerm;53138;51.496;6.410;2023-04-24T00:14:50;36.46;34.14;40.99;;
66335;Laerm;53138;51.496;6.410;2023-04-24T00:15:00;36.62;33.66;51.62;;
66335;Laerm;53138;51.496;6.410;2023-04-24T00:15:11;36.95;34.54;43.89;;
66335;Laerm;53138;51.496;6.410;2023-04-24T00:15:21;43.09;35.09;59.94;;
66335;Laerm;53138;51.496;6.410;2023-04-24T00:15:31;41.71;37.15;56.23;;
66335;Laerm;53138;51.496;6.410;2023-04-24T00:15:41;40.63;37.27;55.40;;
66335;Laerm;53138;51.496;6.410;2023-04-24T00:15:51;41.83;38.22;54.06;;
66335;Laerm;53138;51.496;6.410;2023-04-24T00:16:02;45.21;40.23;59.92;;
66335;Laerm;53138;51.496;6.410;2023-04-24T00:16:12;43.94;39.38;56.78;;
66335;Laerm;53138;51.496;6.410;2023-04-24T00:16:22;45.73;39.70;61.82;;
66335;Laerm;53138;51.496;6.410;2023-04-24T00:16:33;45.96;40.24;64.90;;
66335;Laerm;53138;51.496;6.410;2023-04-24T00:16:43;45.75;40.27;60.41;;
66335;Laerm;53138;51.496;6.410;2023-04-24T00:16:53;42.39;39.44;56.77;;
66335;Laerm;53138;51.496;6.410;2023-04-24T00:17:03;41.82;39.08;51.10;;
66335;Laerm;53138;51.496;6.410;2023-04-24T00:17:13;43.77;38.96;57.81;;
66335;Laerm;53138;51.496;6.410;2023-04-24T00:17:23;44.98;37.98;62.25;;
66335;Laerm;53138;51.496;6.410;2023-04-24T00:17:34;39.71;36.23;54.52;;
66335;Laerm;53138;51.496;6.410;2023-04-24T00:17:44;41.18;35.94;57.85;;
66335;Laerm;53138;51.496;6.410;2023-04-24T00:17:54;38.91;36.03;51.09;;
66335;Laerm;53138;51.496;6.410;2023-04-24T00:18:04;37.24;34.10;46.11;;
66335;Laerm;53138;51.496;6.410;2023-04-24T00:18:14;38.85;33.52;58.11;;
66335;Laerm;53138;51.496;6.410;2023-04-24T00:18:25;36.26;33.38;48.32;;
66335;Laerm;53138;51.496;6.410;2023-04-24T00:18:35;40.55;33.98;60.19;;
66335;Laerm;53138;51.496;6.410;2023-04-24T00:18:45;38.15;34.20;53.64;;
66335;Laerm;53138;51.496;6.410;2023-04-24T00:18:57;38.90;34.46;57.47;;
66335;Laerm;53138;51.496;6.410;2023-04-24T00:19:08;36.58;34.88;38.22;;
66335;Laerm;53138;51.496;6.410;2023-04-24T00:19:18;39.04;36.12;48.53;;
66335;Laerm;53138;51.496;6.410;2023-04-24T00:19:31;36.98;34.70;47.25;;
66335;Laerm;53138;51.496;6.410;2023-04-24T00:19:41;37.92;34.75;51.26;;
66335;Laerm;53138;51.496;6.410;2023-04-24T00:19:51;38.63;33.98;52.73;;
66335;Laerm;53138;51.496;6.410;2023-04-24T00:20:08;42.80;36.85;59.38;;
66335;Laerm;53138;51.496;6.410;2023-04-24T00:20:20;40.74;36.55;56.53;;
66335;Laerm;53138;51.496;6.410;2023-04-24T00:20:31;41.24;35.20;55.38;;
66335;Laerm;53138;51.496;6.410;2023-04-24T00:20:45;38.78;36.01;49.76;;
66335;Laerm;53138;51.496;6.410;2023-04-24T00:20:56;38.84;35.72;53.84;;
66335;Laerm;53138;51.496;6.410;2023-04-24T00:21:06;42.27;37.66;57.46;;
66335;Laerm;53138;51.496;6.410;2023-04-24T00:21:17;40.79;37.38;53.18;;
66335;Laerm;53138;51.496;6.410;2023-04-24T00:21:27;40.63;37.63;52.17;;
66335;Laerm;53138;51.496;6.410;2023-04-24T00:21:38;43.11;36.59;60.76;;
66335;Laerm;53138;51.496;6.410;2023-04-24T00:21:48;42.06;38.47;54.74;;
66335;Laerm;53138;51.496;6.410;2023-04-24T00:21:59;40.49;36.35;46.50;;
66335;Laerm;53138;51.496;6.410;2023-04-24T00:22:10;39.81;35.86;57.75;;
66335;Laerm;53138;51.496;6.410;2023-04-24T00:22:20;41.17;37.76;54.42;;
66335;Laerm;53138;51.496;6.410;2023-04-24T00:22:31;41.37;37.48;56.57;;
66335;Laerm;53138;51.496;6.410;2023-04-24T00:22:41;39.90;37.13;53.17;;
66335;Laerm;53138;51.496;6.410;2023-04-24T00:22:51;42.27;37.44;60.17;;
66335;Laerm;53138;51.496;6.410;2023-04-24T00:23:02;40.38;36.58;55.87;;
66335;Laerm;53138;51.496;6.410;2023-04-24T00:23:12;40.19;37.05;53.86;;
66335;Laerm;53138;51.496;6.410;2023-04-24T00:23:22;39.80;36.54;50.77;;
66335;Laerm;53138;51.496;6.410;2023-04-24T00:23:33;45.78;40.11;61.45;;
66335;Laerm;53138;51.496;6.410;2023-04-24T00:23:43;46.84;39.69;66.09;;
66335;Laerm;53138;51.496;6.410;2023-04-24T00:23:53;43.38;38.09;59.92;;
66335;Laerm;53138;51.496;6.410;2023-04-24T00:24:04;42.25;36.36;60.18;;
66335;Laerm;53138;51.496;6.410;2023-04-24T00:24:14;38.73;35.73;45.65;;
66335;Laerm;53138;51.496;6.410;2023-04-24T00:24:24;41.96;35.50;62.30;;
66335;Laerm;53138;51.496;6.410;2023-04-24T00:24:34;38.13;34.99;48.04;;
66335;Laerm;53138;51.496;6.410;2023-04-24T00:24:44;37.33;35.16;46.42;;
66335;Laerm;53138;51.496;6.410;2023-04-24T00:24:55;40.40;35.56;54.68;;
66335;Laerm;53138;51.496;6.410;2023-04-24T00:25:05;42.02;36.35;57.78;;
66335;Laerm;53138;51.496;6.410;2023-04-24T00:25:15;41.17;35.76;59.77;;
66335;Laerm;53138;51.496;6.410;2023-04-24T00:25:26;39.92;34.11;58.51;;
66335;Laerm;53138;51.496;6.410;2023-04-24T00:25:36;37.05;33.87;50.40;;
66335;Laerm;53138;51.496;6.410;2023-04-24T00:25:46;38.28;35.44;54.57;;
66335;Laerm;53138;51.496;6.410;2023-04-24T00:25:56;36.69;34.47;43.88;;
66335;Laerm;53138;51.496;6.410;2023-04-24T00:26:06;39.98;34.32;55.98;;
66335;Laerm;53138;51.496;6.410;2023-04-24T00:26:17;36.74;33.85;48.67;;
66335;Laerm;53138;51.496;6.410;2023-04-24T00:26:27;37.90;33.50;55.71;;
66335;Laerm;53138;51.496;6.410;2023-04-24T00:26:37;38.52;34.63;41.53;;
66335;Laerm;53138;51.496;6.410;2023-04-24T00:26:48;37.31;34.29;43.59;;
66335;Laerm;53138;51.496;6.410;2023-04-24T00:26:58;37.96;35.14;49.93;;
66335;Laerm;53138;51.496;6.410;2023-04-24T00:27:08;35.86;33.18;46.25;;
66335;Laerm;53138;51.496;6.410;2023-04-24T00:27:18;35.69;33.56;43.71;;
66335;Laerm;53138;51.496;6.410;2023-04-24T00:27:29;36.96;34.69;47.14;;
66335;Laerm;53138;51.496;6.410;2023-04-24T00:27:39;36.57;34.65;38.24;;
66335;Laerm;53138;51.496;6.410;2023-04-24T00:27:50;36.73;34.26;42.78;;
66335;Laerm;53138;51.496;6.410;2023-04-24T00:28:00;38.25;35.17;51.87;;
66335;Laerm;53138;51.496;6.410;2023-04-24T00:28:10;39.57;36.61;52.96;;
66335;Laerm;53138;51.496;6.410;2023-04-24T00:28:20;44.34;37.22;61.37;;
66335;Laerm;53138;51.496;6.410;2023-04-24T00:28:30;43.40;39.60;58.44;;
66335;Laerm;53138;51.496;6.410;2023-04-24T00:28:41;42.71;37.81;55.94;;
66335;Laerm;53138;51.496;6.410;2023-04-24T00:28:51;39.79;36.55;48.56;;
66335;Laerm;53138;51.496;6.410;2023-04-24T00:29:01;39.75;36.74;52.22;;
66335;Laerm;53138;51.496;6.410;2023-04-24T00:29:11;41.27;38.52;51.90;;
66335;Laerm;53138;51.496;6.410;2023-04-24T00:29:21;40.34;37.33;49.06;;
66335;Laerm;53138;51.496;6.410;2023-04-24T00:29:31;42.82;39.28;52.35;;
66335;Laerm;53138;51.496;6.410;2023-04-24T00:29:42;45.20;39.78;61.08;;
66335;Laerm;53138;51.496;6.410;2023-04-24T00:29:52;44.88;38.07;57.74;;
66335;Laerm;53138;51.496;6.410;2023-04-24T00:30:02;44.47;39.08;60.57;;
66335;Laerm;53138;51.496;6.410;2023-04-24T00:30:13;41.46;36.01;59.69;;
66335;Laerm;53138;51.496;6.410;2023-04-24T00:30:23;42.55;34.65;60.67;;
66335;Laerm;53138;51.496;6.410;2023-04-24T00:30:33;39.47;33.71;53.96;;
66335;Laerm;53138;51.496;6.410;2023-04-24T00:30:43;41.78;33.45;60.10;;
66335;Laerm;53138;51.496;6.410;2023-04-24T00:30:54;37.49;34.25;47.67;;
66335;Laerm;53138;51.496;6.410;2023-04-24T00:31:04;38.59;33.09;55.11;;
66335;Laerm;53138;51.496;6.410;2023-04-24T00:31:14;34.80;32.63;47.54;;
66335;Laerm;53138;51.496;6.410;2023-04-24T00:31:24;35.95;32.97;51.23;;
66335;Laerm;53138;51.496;6.410;2023-04-24T00:31:34;33.32;31.56;35.68;;
66335;Laerm;53138;51.496;6.410;2023-04-24T00:31:45;33.44;31.62;42.03;;
66335;Laerm;53138;51.496;6.410;2023-04-24T00:31:55;34.85;31.46;49.61;;
66335;Laerm;53138;51.496;6.410;2023-04-24T00:32:05;32.96;31.41;36.74;;
66335;Laerm;53138;51.496;6.410;2023-04-24T00:32:15;32.99;31.40;34.72;;
66335;Laerm;53138;51.496;6.410;2023-04-24T00:32:27;32.89;30.83;34.89;;
66335;Laerm;53138;51.496;6.410;2023-04-24T00:32:37;33.13;31.56;42.02;;
66335;Laerm;53138;51.496;6.410;2023-04-24T00:32:47;33.11;31.09;37.22;;
66335;Laerm;53138;51.496;6.410;2023-04-24T00:32:58;32.49;30.91;34.45;;
66335;Laerm;53138;51.496;6.410;2023-04-24T00:33:08;33.38;30.98;44.51;;
66335;Laerm;53138;51.496;6.410;2023-04-24T00:33:18;32.92;31.23;34.71;;
66335;Laerm;53138;51.496;6.410;2023-04-24T00:33:29;34.01;30.84;47.93;;
66335;Laerm;53138;51.496;6.410;2023-04-24T00:33:39;35.97;31.50;54.05;;
66335;Laerm;53138;51.496;6.410;2023-04-24T00:33:49;35.77;30.93;52.77;;
66335;Laerm;53138;51.496;6.410;2023-04-24T00:34:00;32.91;30.48;41.22;;
66335;Laerm;53138;51.496;6.410;2023-04-24T00:34:11;34.67;31.10;50.40;;
66335;Laerm;53138;51.496;6.410;2023-04-24T00:34:22;33.80;31.52;41.19;;
66335;Laerm;53138;51.496;6.410;2023-04-24T00:34:32;33.79;31.65;44.03;;
66335;Laerm;53138;51.496;6.410;2023-04-24T00:34:43;42.46;32.16;62.61;;
66335;Laerm;53138;51.496;6.410;2023-04-24T00:34:53;36.91;33.03;47.03;;
66335;Laerm;53138;51.496;6.410;2023-04-24T00:35:03;40.09;35.47;53.50;;
66335;Laerm;53138;51.496;6.410;2023-04-24T00:35:14;41.81;38.40;52.41;;
66335;Laerm;53138;51.496;6.410;2023-04-24T00:35:24;41.18;37.10;49.02;;
66335;Laerm;53138;51.496;6.410;2023-04-24T00:35:35;39.64;36.42;49.24;;
66335;Laerm;53138;51.496;6.410;2023-04-24T00:35:45;40.72;37.34;54.13;;
66335;Laerm;53138;51.496;6.410;2023-04-24T00:35:55;40.94;36.16;56.52;;
66335;Laerm;53138;51.496;6.410;2023-04-24T00:36:05;38.73;35.43;48.12;;
66335;Laerm;53138;51.496;6.410;2023-04-24T00:36:15;40.00;36.31;56.72;;
66335;Laerm;53138;51.496;6.410;2023-04-24T00:36:26;40.23;35.97;52.58;;
66335;Laerm;53138;51.496;6.410;2023-04-24T00:36:37;41.56;35.76;58.47;;
66335;Laerm;53138;51.496;6.410;2023-04-24T00:36:47;43.69;36.48;59.79;;
66335;Laerm;53138;51.496;6.410;2023-04-24T00:36:59;39.40;35.29;54.02;;
66335;Laerm;53138;51.496;6.410;2023-04-24T00:37:09;43.17;35.43;61.64;;
66335;Laerm;53138;51.496;6.410;2023-04-24T00:37:19;37.98;34.27;51.04;;
66335;Laerm;53138;51.496;6.410;2023-04-24T00:37:29;37.46;33.11;52.09;;
66335;Laerm;53138;51.496;6.410;2023-04-24T00:37:40;37.39;33.26;53.54;;
66335;Laerm;53138;51.496;6.410;2023-04-24T00:37:50;35.34;33.84;38.42;;
66335;Laerm;53138;51.496;6.410;2023-04-24T00:38:00;36.63;33.11;54.02;;
66335;Laerm;53138;51.496;6.410;2023-04-24T00:38:10;34.85;33.06;41.46;;
66335;Laerm;53138;51.496;6.410;2023-04-24T00:38:21;34.99;33.23;36.88;;
66335;Laerm;53138;51.496;6.410;2023-04-24T00:38:32;35.80;33.29;48.20;;
66335;Laerm;53138;51.496;6.410;2023-04-24T00:38:42;36.23;33.16;48.60;;
66335;Laerm;53138;51.496;6.410;2023-04-24T00:38:52;36.08;33.21;49.54;;
66335;Laerm;53138;51.496;6.410;2023-04-24T00:39:03;36.51;34.34;44.07;;
66335;Laerm;53138;51.496;6.410;2023-04-24T00:39:13;35.91;33.81;46.94;;
66335;Laerm;53138;51.496;6.410;2023-04-24T00:39:23;35.60;33.76;37.10;;
66335;Laerm;53138;51.496;6.410;2023-04-24T00:39:33;36.50;34.11;41.29;;
66335;Laerm;53138;51.496;6.410;2023-04-24T00:39:44;40.47;36.41;52.87;;
66335;Laerm;53138;51.496;6.410;2023-04-24T00:39:54;41.57;36.97;52.88;;
66335;Laerm;53138;51.496;6.410;2023-04-24T00:40:04;43.89;36.52;61.57;;
66335;Laerm;53138;51.496;6.410;2023-04-24T00:40:16;39.66;36.52;53.59;;
66335;Laerm;53138;51.496;6.410;2023-04-24T00:40:26;38.33;35.18;51.25;;
66335;Laerm;53138;51.496;6.410;2023-04-24T00:40:36;38.46;34.17;52.08;;
66335;Laerm;53138;51.496;6.410;2023-04-24T00:40:47;37.61;34.69;49.93;;
66335;Laerm;53138;51.496;6.410;2023-04-24T00:40:58;39.20;35.01;53.21;;
66335;Laerm;53138;51.496;6.410;2023-04-24T00:41:08;37.29;35.31;45.57;;
66335;Laerm;53138;51.496;6.410;2023-04-24T00:41:18;40.37;34.73;58.09;;
66335;Laerm;53138;51.496;6.410;2023-04-24T00:41:29;38.42;34.05;52.41;;
66335;Laerm;53138;51.496;6.410;2023-04-24T00:41:39;37.64;34.14;54.89;;
66335;Laerm;53138;51.496;6.410;2023-04-24T00:41:49;35.09;33.34;38.79;;
66335;Laerm;53138;51.496;6.410;2023-04-24T00:42:00;36.01;32.94;48.55;;
66335;Laerm;53138;51.496;6.410;2023-04-24T00:42:11;36.43;33.27;50.37;;
66335;Laerm;53138;51.496;6.410;2023-04-24T00:42:22;35.46;32.89;38.09;;
66335;Laerm;53138;51.496;6.410;2023-04-24T00:42:32;36.70;34.38;41.74;;
66335;Laerm;53138;51.496;6.410;2023-04-24T00:42:43;40.54;36.14;55.95;;
66335;Laerm;53138;51.496;6.410;2023-04-24T00:42:53;39.95;37.03;49.15;;
66335;Laerm;53138;51.496;6.410;2023-04-24T00:43:03;42.70;39.49;54.52;;
66335;Laerm;53138;51.496;6.410;2023-04-24T00:43:14;46.18;41.36;62.09;;
66335;Laerm;53138;51.496;6.410;2023-04-24T00:43:24;44.24;40.49;61.00;;
66335;Laerm;53138;51.496;6.410;2023-04-24T00:43:34;43.13;39.17;56.03;;
66335;Laerm;53138;51.496;6.410;2023-04-24T00:43:44;43.37;39.20;61.38;;
66335;Laerm;53138;51.496;6.410;2023-04-24T00:43:55;46.55;39.92;62.66;;
66335;Laerm;53138;51.496;6.410;2023-04-24T00:44:06;44.41;40.12;59.47;;
66335;Laerm;53138;51.496;6.410;2023-04-24T00:44:16;43.37;37.75;53.84;;
66335;Laerm;53138;51.496;6.410;2023-04-24T00:44:26;40.36;37.75;50.61;;
66335;Laerm;53138;51.496;6.410;2023-04-24T00:44:36;42.46;36.93;61.89;;
66335;Laerm;53138;51.496;6.410;2023-04-24T00:44:47;41.57;37.35;55.59;;
66335;Laerm;53138;51.496;6.410;2023-04-24T00:44:57;38.52;36.85;41.67;;
66335;Laerm;53138;51.496;6.410;2023-04-24T00:45:07;38.56;36.74;44.36;;
66335;Laerm;53138;51.496;6.410;2023-04-24T00:45:18;40.18;36.86;52.88;;
66335;Laerm;53138;51.496;6.410;2023-04-24T00:45:28;41.66;36.74;56.45;;
66335;Laerm;53138;51.496;6.410;2023-04-24T00:45:38;38.78;36.06;51.93;;
66335;Laerm;53138;51.496;6.410;2023-04-24T00:45:48;39.15;35.41;54.43;;
66335;Laerm;53138;51.496;6.410;2023-04-24T00:45:59;41.23;34.94;57.06;;
66335;Laerm;53138;51.496;6.410;2023-04-24T00:46:11;38.72;34.72;56.86;;
66335;Laerm;53138;51.496;6.410;2023-04-24T00:46:22;39.29;35.49;52.39;;
66335;Laerm;53138;51.496;6.410;2023-04-24T00:46:32;42.86;36.55;58.20;;
66335;Laerm;53138;51.496;6.410;2023-04-24T00:46:42;42.36;39.27;55.82;;
66335;Laerm;53138;51.496;6.410;2023-04-24T00:46:53;43.00;39.56;58.59;;
66335;Laerm;53138;51.496;6.410;2023-04-24T00:47:04;43.67;39.86;54.17;;
66335;Laerm;53138;51.496;6.410;2023-04-24T00:47:14;45.76;40.88;63.65;;
66335;Laerm;53138;51.496;6.410;2023-04-24T00:47:25;49.72;44.68;62.73;;
66335;Laerm;53138;51.496;6.410;2023-04-24T00:47:35;47.30;42.37;61.89;;
66335;Laerm;53138;51.496;6.410;2023-04-24T00:47:46;43.58;41.09;53.92;;
66335;Laerm;53138;51.496;6.410;2023-04-24T00:47:56;41.93;37.89;50.75;;
66335;Laerm;53138;51.496;6.410;2023-04-24T00:48:07;38.77;35.94;41.68;;
66335;Laerm;53138;51.496;6.410;2023-04-24T00:48:17;39.08;36.85;46.12;;
66335;Laerm;53138;51.496;6.410;2023-04-24T00:48:28;42.23;38.10;57.95;;
66335;Laerm;53138;51.496;6.410;2023-04-24T00:48:40;40.04;36.60;50.12;;
66335;Laerm;53138;51.496;6.410;2023-04-24T00:48:51;44.99;39.32;63.05;;
66335;Laerm;53138;51.496;6.410;2023-04-24T00:49:01;42.86;36.66;55.60;;
66335;Laerm;53138;51.496;6.410;2023-04-24T00:49:12;37.97;35.33;45.20;;
66335;Laerm;53138;51.496;6.410;2023-04-24T00:49:23;41.10;35.58;61.24;;
66335;Laerm;53138;51.496;6.410;2023-04-24T00:49:33;38.46;35.27;52.28;;
66335;Laerm;53138;51.496;6.410;2023-04-24T00:49:44;38.53;35.51;47.23;;
66335;Laerm;53138;51.496;6.410;2023-04-24T00:49:54;38.96;35.73;54.61;;
66335;Laerm;53138;51.496;6.410;2023-04-24T00:50:05;40.69;36.12;56.39;;
66335;Laerm;53138;51.496;6.410;2023-04-24T00:50:16;38.21;35.12;53.68;;
66335;Laerm;53138;51.496;6.410;2023-04-24T00:50:26;38.17;34.73;53.03;;
66335;Laerm;53138;51.496;6.410;2023-04-24T00:50:36;39.50;35.23;57.47;;
66335;Laerm;53138;51.496;6.410;2023-04-24T00:50:46;39.44;34.83;57.58;;
66335;Laerm;53138;51.496;6.410;2023-04-24T00:50:56;39.94;35.44;54.45;;
66335;Laerm;53138;51.496;6.410;2023-04-24T00:51:08;37.02;35.03;48.22;;
66335;Laerm;53138;51.496;6.410;2023-04-24T00:51:19;38.13;35.00;50.49;;
66335;Laerm;53138;51.496;6.410;2023-04-24T00:51:29;39.85;36.30;51.96;;
66335;Laerm;53138;51.496;6.410;2023-04-24T00:51:40;41.69;36.82;60.96;;
66335;Laerm;53138;51.496;6.410;2023-04-24T00:51:55;40.56;36.05;60.02;;
66335;Laerm;53138;51.496;6.410;2023-04-24T00:52:06;39.03;35.54;48.84;;
66335;Laerm;53138;51.496;6.410;2023-04-24T00:52:18;42.19;35.74;60.51;;
66335;Laerm;53138;51.496;6.410;2023-04-24T00:52:29;43.54;36.98;60.37;;
66335;Laerm;53138;51.496;6.410;2023-04-24T00:52:41;41.96;37.98;57.65;;
66335;Laerm;53138;51.496;6.410;2023-04-24T00:52:51;40.00;37.47;51.43;;
66335;Laerm;53138;51.496;6.410;2023-04-24T00:53:02;39.99;36.56;50.23;;
66335;Laerm;53138;51.496;6.410;2023-04-24T00:53:12;39.88;37.40;50.67;;
66335;Laerm;53138;51.496;6.410;2023-04-24T00:53:23;41.63;35.89;59.42;;
66335;Laerm;53138;51.496;6.410;2023-04-24T00:53:33;39.27;35.98;52.37;;
66335;Laerm;53138;51.496;6.410;2023-04-24T00:53:43;39.22;35.91;56.67;;
66335;Laerm;53138;51.496;6.410;2023-04-24T00:53:53;41.42;35.44;58.37;;
66335;Laerm;53138;51.496;6.410;2023-04-24T00:54:03;40.04;37.37;56.65;;
66335;Laerm;53138;51.496;6.410;2023-04-24T00:54:14;43.80;38.30;59.35;;
66335;Laerm;53138;51.496;6.410;2023-04-24T00:54:24;43.52;40.19;55.25;;
66335;Laerm;53138;51.496;6.410;2023-04-24T00:54:35;40.00;35.88;50.03;;
66335;Laerm;53138;51.496;6.410;2023-04-24T00:54:46;38.52;35.65;53.03;;
66335;Laerm;53138;51.496;6.410;2023-04-24T00:54:56;37.28;35.13;44.19;;
66335;Laerm;53138;51.496;6.410;2023-04-24T00:55:06;41.16;36.61;57.89;;
66335;Laerm;53138;51.496;6.410;2023-04-24T00:55:17;42.08;37.03;59.95;;
66335;Laerm;53138;51.496;6.410;2023-04-24T00:55:27;41.33;37.20;54.15;;
66335;Laerm;53138;51.496;6.410;2023-04-24T00:55:37;40.37;37.98;45.03;;
66335;Laerm;53138;51.496;6.410;2023-04-24T00:55:47;41.47;38.23;55.25;;
66335;Laerm;53138;51.496;6.410;2023-04-24T00:55:58;43.10;36.96;58.23;;
66335;Laerm;53138;51.496;6.410;2023-04-24T00:56:08;42.13;37.50;57.55;;
66335;Laerm;53138;51.496;6.410;2023-04-24T00:56:19;42.26;38.08;56.22;;
66335;Laerm;53138;51.496;6.410;2023-04-24T00:56:29;42.53;37.90;51.80;;
66335;Laerm;53138;51.496;6.410;2023-04-24T00:56:40;40.66;36.67;52.96;;
66335;Laerm;53138;51.496;6.410;2023-04-24T00:56:51;40.54;35.75;58.80;;
66335;Laerm;53138;51.496;6.410;2023-04-24T00:57:05;39.83;35.77;54.28;;
66335;Laerm;53138;51.496;6.410;2023-04-24T00:57:15;40.52;34.52;56.24;;
66335;Laerm;53138;51.496;6.410;2023-04-24T00:57:26;37.64;34.01;54.19;;
66335;Laerm;53138;51.496;6.410;2023-04-24T00:57:36;37.54;33.23;52.40;;
66335;Laerm;53138;51.496;6.410;2023-04-24T00:57:47;36.80;33.83;46.51;;
66335;Laerm;53138;51.496;6.410;2023-04-24T00:57:58;36.85;34.40;47.36;;
66335;Laerm;53138;51.496;6.410;2023-04-24T00:58:09;35.99;34.16;39.49;;
66335;Laerm;53138;51.496;6.410;2023-04-24T00:58:19;37.04;34.23;50.69;;
66335;Laerm;53138;51.496;6.410;2023-04-24T00:58:29;37.70;34.15;47.84;;
66335;Laerm;53138;51.496;6.410;2023-04-24T00:58:41;37.52;34.48;49.01;;
66335;Laerm;53138;51.496;6.410;2023-04-24T00:58:51;37.54;33.97;53.33;;
66335;Laerm;53138;51.496;6.410;2023-04-24T00:59:02;34.89;32.78;37.69;;